Terminal Aerodrome Forecast
Issued by NWS

Home | Current Version | Previous Version | Text Only | Print | Product List | Glossary On
Versions: 1 2 3 4 5 6 7 8 9 10 11 12 13 14 15 16 17 18 19 20 21 22 23 24 25 26 27 28 29
000
FTUS43 KDLH 031725
TAFBRD
TAF
KBRD 031725Z 0318/0418 29008KT 4SM FU SCT035
     FM032200 32012KT 5SM FU VCSH BKN040
      TEMPO 0322/0402 6SM RA BKN035
     FM040200 VRB05KT P6SM SCT060=

USA.gov is the U.S. government's official web portal to all federal, state and local government web resources and services.